sensor_id;sensor_type;location;lat;lon;timestamp;P1;durP1;ratioP1;P2;durP2;ratioP2
19521;SDS011;9905;52.126;5.596;2023-08-20T00:00:01;11.30;;;7.90;;
19521;SDS011;9905;52.126;5.596;2023-08-20T00:02:32;9.90;;;8.45;;
19521;SDS011;9905;52.126;5.596;2023-08-20T00:05:03;9.57;;;8.23;;
19521;SDS011;9905;52.126;5.596;2023-08-20T00:07:31;11.95;;;8.23;;
19521;SDS011;9905;52.126;5.596;2023-08-20T00:09:58;8.50;;;7.70;;
19521;SDS011;9905;52.126;5.596;2023-08-20T00:12:25;8.88;;;8.07;;
19521;SDS011;9905;52.126;5.596;2023-08-20T00:14:53;10.23;;;7.40;;
19521;SDS011;9905;52.126;5.596;2023-08-20T00:17:21;12.75;;;9.02;;
19521;SDS011;9905;52.126;5.596;2023-08-20T00:19:52;9.20;;;7.57;;
19521;SDS011;9905;52.126;5.596;2023-08-20T00:22:21;8.85;;;7.97;;
19521;SDS011;9905;52.126;5.596;2023-08-20T00:24:49;8.10;;;7.50;;
19521;SDS011;9905;52.126;5.596;2023-08-20T00:27:16;8.20;;;7.35;;
19521;SDS011;9905;52.126;5.596;2023-08-20T00:29:43;9.68;;;7.07;;
19521;SDS011;9905;52.126;5.596;2023-08-20T00:32:10;9.85;;;7.95;;
19521;SDS011;9905;52.126;5.596;2023-08-20T00:34:37;8.45;;;7.65;;
19521;SDS011;9905;52.126;5.596;2023-08-20T00:37:05;8.75;;;7.40;;
19521;SDS011;9905;52.126;5.596;2023-08-20T00:39:33;8.45;;;7.47;;
19521;SDS011;9905;52.126;5.596;2023-08-20T00:42:00;7.97;;;7.25;;
19521;SDS011;9905;52.126;5.596;2023-08-20T00:44:27;7.88;;;7.28;;
19521;SDS011;9905;52.126;5.596;2023-08-20T00:46:54;8.05;;;7.30;;
19521;SDS011;9905;52.126;5.596;2023-08-20T00:49:21;8.00;;;7.25;;
19521;SDS011;9905;52.126;5.596;2023-08-20T00:51:48;8.13;;;7.43;;
19521;SDS011;9905;52.126;5.596;2023-08-20T00:54:16;9.43;;;7.63;;
19521;SDS011;9905;52.126;5.596;2023-08-20T00:56:44;7.53;;;6.93;;
19521;SDS011;9905;52.126;5.596;2023-08-20T00:59:11;8.40;;;7.43;;
19521;SDS011;9905;52.126;5.596;2023-08-20T01:01:38;8.52;;;7.47;;
19521;SDS011;9905;52.126;5.596;2023-08-20T01:04:05;9.07;;;8.15;;
19521;SDS011;9905;52.126;5.596;2023-08-20T01:06:34;8.98;;;8.10;;
19521;SDS011;9905;52.126;5.596;2023-08-20T01:09:10;8.48;;;7.88;;
19521;SDS011;9905;52.126;5.596;2023-08-20T01:11:49;9.65;;;7.78;;
19521;SDS011;9905;52.126;5.596;2023-08-20T01:14:21;8.63;;;7.82;;
19521;SDS011;9905;52.126;5.596;2023-08-20T01:16:48;8.32;;;7.70;;
19521;SDS011;9905;52.126;5.596;2023-08-20T01:19:16;8.95;;;8.07;;
19521;SDS011;9905;52.126;5.596;2023-08-20T01:21:47;10.75;;;9.25;;
19521;SDS011;9905;52.126;5.596;2023-08-20T01:24:29;9.10;;;8.07;;
19521;SDS011;9905;52.126;5.596;2023-08-20T01:27:16;9.15;;;8.52;;
19521;SDS011;9905;52.126;5.596;2023-08-20T01:29:54;8.52;;;7.82;;
19521;SDS011;9905;52.126;5.596;2023-08-20T01:32:22;9.13;;;8.23;;
19521;SDS011;9905;52.126;5.596;2023-08-20T01:34:50;10.50;;;8.50;;
19521;SDS011;9905;52.126;5.596;2023-08-20T01:37:18;11.70;;;10.05;;
19521;SDS011;9905;52.126;5.596;2023-08-20T01:39:45;10.73;;;7.93;;
19521;SDS011;9905;52.126;5.596;2023-08-20T01:42:12;9.25;;;8.00;;
19521;SDS011;9905;52.126;5.596;2023-08-20T01:44:38;8.45;;;7.75;;
19521;SDS011;9905;52.126;5.596;2023-08-20T01:47:07;8.70;;;8.00;;
19521;SDS011;9905;52.126;5.596;2023-08-20T01:49:33;8.90;;;8.02;;
19521;SDS011;9905;52.126;5.596;2023-08-20T01:52:00;7.90;;;7.30;;
19521;SDS011;9905;52.126;5.596;2023-08-20T01:54:27;9.40;;;7.85;;
19521;SDS011;9905;52.126;5.596;2023-08-20T01:56:55;8.35;;;7.63;;
19521;SDS011;9905;52.126;5.596;2023-08-20T01:59:22;8.63;;;7.25;;
19521;SDS011;9905;52.126;5.596;2023-08-20T02:01:49;7.55;;;7.05;;
19521;SDS011;9905;52.126;5.596;2023-08-20T02:04:17;7.55;;;6.68;;
19521;SDS011;9905;52.126;5.596;2023-08-20T02:06:44;7.28;;;6.68;;
19521;SDS011;9905;52.126;5.596;2023-08-20T02:09:11;8.05;;;7.38;;
19521;SDS011;9905;52.126;5.596;2023-08-20T02:11:38;9.25;;;7.28;;
19521;SDS011;9905;52.126;5.596;2023-08-20T02:14:04;10.82;;;9.35;;
19521;SDS011;9905;52.126;5.596;2023-08-20T02:16:31;10.00;;;8.90;;
19521;SDS011;9905;52.126;5.596;2023-08-20T02:18:58;10.15;;;8.45;;
19521;SDS011;9905;52.126;5.596;2023-08-20T02:21:28;8.45;;;7.55;;
19521;SDS011;9905;52.126;5.596;2023-08-20T02:23:55;8.93;;;8.25;;
19521;SDS011;9905;52.126;5.596;2023-08-20T02:26:22;10.98;;;9.48;;
19521;SDS011;9905;52.126;5.596;2023-08-20T02:28:48;12.38;;;9.65;;
19521;SDS011;9905;52.126;5.596;2023-08-20T02:31:15;8.85;;;8.05;;
19521;SDS011;9905;52.126;5.596;2023-08-20T02:33:42;10.93;;;8.50;;
19521;SDS011;9905;52.126;5.596;2023-08-20T02:36:09;8.40;;;7.70;;
19521;SDS011;9905;52.126;5.596;2023-08-20T02:38:37;8.50;;;7.65;;
19521;SDS011;9905;52.126;5.596;2023-08-20T02:41:04;8.32;;;7.55;;
19521;SDS011;9905;52.126;5.596;2023-08-20T02:43:31;7.90;;;7.07;;
19521;SDS011;9905;52.126;5.596;2023-08-20T02:45:57;8.20;;;7.47;;
19521;SDS011;9905;52.126;5.596;2023-08-20T02:48:24;7.85;;;7.15;;
19521;SDS011;9905;52.126;5.596;2023-08-20T02:50:52;9.27;;;6.88;;
19521;SDS011;9905;52.126;5.596;2023-08-20T02:53:19;8.15;;;7.35;;
19521;SDS011;9905;52.126;5.596;2023-08-20T02:55:48;8.88;;;7.22;;
19521;SDS011;9905;52.126;5.596;2023-08-20T02:58:15;13.40;;;9.13;;
19521;SDS011;9905;52.126;5.596;2023-08-20T03:00:46;8.85;;;7.78;;
19521;SDS011;9905;52.126;5.596;2023-08-20T03:03:12;10.15;;;8.13;;
19521;SDS011;9905;52.126;5.596;2023-08-20T03:05:39;9.00;;;7.30;;
19521;SDS011;9905;52.126;5.596;2023-08-20T03:08:06;9.18;;;8.30;;
19521;SDS011;9905;52.126;5.596;2023-08-20T03:10:33;8.52;;;7.75;;
19521;SDS011;9905;52.126;5.596;2023-08-20T03:13:02;9.75;;;8.38;;
19521;SDS011;9905;52.126;5.596;2023-08-20T03:15:29;10.15;;;7.72;;
19521;SDS011;9905;52.126;5.596;2023-08-20T03:17:56;9.23;;;8.38;;
19521;SDS011;9905;52.126;5.596;2023-08-20T03:20:23;9.23;;;8.35;;
19521;SDS011;9905;52.126;5.596;2023-08-20T03:22:50;8.48;;;7.57;;
19521;SDS011;9905;52.126;5.596;2023-08-20T03:25:18;9.50;;;7.90;;
19521;SDS011;9905;52.126;5.596;2023-08-20T03:27:45;8.30;;;7.65;;
19521;SDS011;9905;52.126;5.596;2023-08-20T03:30:13;9.90;;;8.43;;
19521;SDS011;9905;52.126;5.596;2023-08-20T03:32:40;10.02;;;9.15;;
19521;SDS011;9905;52.126;5.596;2023-08-20T03:35:07;11.45;;;9.38;;
19521;SDS011;9905;52.126;5.596;2023-08-20T03:37:34;8.98;;;8.07;;
19521;SDS011;9905;52.126;5.596;2023-08-20T03:40:02;9.35;;;8.18;;
19521;SDS011;9905;52.126;5.596;2023-08-20T03:42:30;12.35;;;7.50;;
19521;SDS011;9905;52.126;5.596;2023-08-20T03:44:56;8.75;;;7.95;;
19521;SDS011;9905;52.126;5.596;2023-08-20T03:47:25;8.70;;;8.00;;
19521;SDS011;9905;52.126;5.596;2023-08-20T03:49:52;8.55;;;7.78;;
19521;SDS011;9905;52.126;5.596;2023-08-20T03:52:18;12.73;;;7.63;;
19521;SDS011;9905;52.126;5.596;2023-08-20T03:54:45;7.85;;;7.18;;
19521;SDS011;9905;52.126;5.596;2023-08-20T03:57:12;8.48;;;7.65;;
19521;SDS011;9905;52.126;5.596;2023-08-20T03:59:39;12.85;;;8.05;;
19521;SDS011;9905;52.126;5.596;2023-08-20T04:02:06;10.23;;;7.55;;
19521;SDS011;9905;52.126;5.596;2023-08-20T04:04:34;8.80;;;8.10;;
19521;SDS011;9905;52.126;5.596;2023-08-20T04:07:02;9.50;;;8.70;;
19521;SDS011;9905;52.126;5.596;2023-08-20T04:09:29;9.15;;;8.38;;
19521;SDS011;9905;52.126;5.596;2023-08-20T04:11:56;9.35;;;8.48;;
19521;SDS011;9905;52.126;5.596;2023-08-20T04:14:23;9.63;;;8.73;;
19521;SDS011;9905;52.126;5.596;2023-08-20T04:16:50;9.07;;;8.38;;
19521;SDS011;9905;52.126;5.596;2023-08-20T04:19:17;10.50;;;8.45;;
19521;SDS011;9905;52.126;5.596;2023-08-20T04:21:45;10.15;;;8.90;;
19521;SDS011;9905;52.126;5.596;2023-08-20T04:24:12;9.13;;;8.20;;
19521;SDS011;9905;52.126;5.596;2023-08-20T04:26:39;10.02;;;8.85;;
19521;SDS011;9905;52.126;5.596;2023-08-20T04:29:06;9.07;;;8.45;;
19521;SDS011;9905;52.126;5.596;2023-08-20T04:31:33;9.55;;;8.63;;
19521;SDS011;9905;52.126;5.596;2023-08-20T04:33:59;10.45;;;8.57;;
19521;SDS011;9905;52.126;5.596;2023-08-20T04:36:26;8.88;;;8.07;;
19521;SDS011;9905;52.126;5.596;2023-08-20T04:38:55;10.07;;;8.15;;
19521;SDS011;9905;52.126;5.596;2023-08-20T04:41:22;9.02;;;7.80;;
19521;SDS011;9905;52.126;5.596;2023-08-20T04:43:48;8.35;;;7.75;;
19521;SDS011;9905;52.126;5.596;2023-08-20T04:46:15;9.05;;;8.40;;
19521;SDS011;9905;52.126;5.596;2023-08-20T04:48:44;9.43;;;8.50;;
19521;SDS011;9905;52.126;5.596;2023-08-20T04:51:11;8.88;;;7.63;;
19521;SDS011;9905;52.126;5.596;2023-08-20T04:53:38;9.75;;;8.70;;
19521;SDS011;9905;52.126;5.596;2023-08-20T04:56:06;10.82;;;9.00;;
19521;SDS011;9905;52.126;5.596;2023-08-20T04:58:33;12.70;;;9.07;;
19521;SDS011;9905;52.126;5.596;2023-08-20T05:00:59;10.70;;;9.32;;
19521;SDS011;9905;52.126;5.596;2023-08-20T05:03:26;9.57;;;8.77;;
19521;SDS011;9905;52.126;5.596;2023-08-20T05:05:53;10.20;;;9.27;;
19521;SDS011;9905;52.126;5.596;2023-08-20T05:08:20;10.45;;;9.10;;
19521;SDS011;9905;52.126;5.596;2023-08-20T05:10:47;9.90;;;8.93;;
19521;SDS011;9905;52.126;5.596;2023-08-20T05:13:17;10.77;;;9.68;;
19521;SDS011;9905;52.126;5.596;2023-08-20T05:15:46;11.68;;;9.48;;
19521;SDS011;9905;52.126;5.596;2023-08-20T05:18:13;9.98;;;8.65;;
19521;SDS011;9905;52.126;5.596;2023-08-20T05:20:39;12.20;;;8.63;;
19521;SDS011;9905;52.126;5.596;2023-08-20T05:23:06;9.88;;;9.07;;
19521;SDS011;9905;52.126;5.596;2023-08-20T05:25:33;13.95;;;10.10;;
19521;SDS011;9905;52.126;5.596;2023-08-20T05:28:00;9.35;;;8.55;;
19521;SDS011;9905;52.126;5.596;2023-08-20T05:30:29;10.38;;;8.55;;
19521;SDS011;9905;52.126;5.596;2023-08-20T05:32:56;10.13;;;9.10;;
19521;SDS011;9905;52.126;5.596;2023-08-20T05:35:23;8.85;;;8.00;;
19521;SDS011;9905;52.126;5.596;2023-08-20T05:37:49;14.48;;;8.73;;
19521;SDS011;9905;52.126;5.596;2023-08-20T05:40:16;12.88;;;8.75;;
19521;SDS011;9905;52.126;5.596;2023-08-20T05:42:43;8.63;;;7.82;;
19521;SDS011;9905;52.126;5.596;2023-08-20T05:45:10;9.18;;;8.43;;
19521;SDS011;9905;52.126;5.596;2023-08-20T05:47:38;8.55;;;7.72;;
19521;SDS011;9905;52.126;5.596;2023-08-20T05:50:05;11.57;;;7.85;;
19521;SDS011;9905;52.126;5.596;2023-08-20T05:52:32;9.73;;;7.70;;
19521;SDS011;9905;52.126;5.596;2023-08-20T05:54:59;10.00;;;7.60;;
19521;SDS011;9905;52.126;5.596;2023-08-20T05:57:26;7.97;;;7.28;;
19521;SDS011;9905;52.126;5.596;2023-08-20T05:59:53;8.40;;;7.35;;
19521;SDS011;9905;52.126;5.596;2023-08-20T06:02:19;9.27;;;6.85;;
19521;SDS011;9905;52.126;5.596;2023-08-20T06:04:48;8.50;;;7.13;;
19521;SDS011;9905;52.126;5.596;2023-08-20T06:07:16;7.60;;;6.85;;
19521;SDS011;9905;52.126;5.596;2023-08-20T06:09:42;7.18;;;6.57;;
19521;SDS011;9905;52.126;5.596;2023-08-20T06:12:09;7.00;;;6.38;;
19521;SDS011;9905;52.126;5.596;2023-08-20T06:14:36;9.30;;;7.00;;
19521;SDS011;9905;52.126;5.596;2023-08-20T06:17:03;9.65;;;6.57;;
19521;SDS011;9905;52.126;5.596;2023-08-20T06:19:30;6.85;;;6.20;;
19521;SDS011;9905;52.126;5.596;2023-08-20T06:21:58;8.63;;;6.45;;
19521;SDS011;9905;52.126;5.596;2023-08-20T06:24:25;10.68;;;6.20;;
19521;SDS011;9905;52.126;5.596;2023-08-20T06:26:52;8.77;;;6.00;;
19521;SDS011;9905;52.126;5.596;2023-08-20T06:29:19;7.32;;;5.40;;
19521;SDS011;9905;52.126;5.596;2023-08-20T06:31:46;7.90;;;5.63;;
19521;SDS011;9905;52.126;5.596;2023-08-20T06:34:14;8.18;;;5.18;;
19521;SDS011;9905;52.126;5.596;2023-08-20T06:36:41;8.65;;;5.80;;
19521;SDS011;9905;52.126;5.596;2023-08-20T06:39:09;7.53;;;5.95;;
19521;SDS011;9905;52.126;5.596;2023-08-20T06:41:36;7.25;;;5.10;;
19521;SDS011;9905;52.126;5.596;2023-08-20T06:44:03;5.78;;;5.25;;
19521;SDS011;9905;52.126;5.596;2023-08-20T06:46:30;7.15;;;5.88;;
19521;SDS011;9905;52.126;5.596;2023-08-20T06:48:57;6.05;;;5.13;;
19521;SDS011;9905;52.126;5.596;2023-08-20T06:51:25;9.57;;;5.00;;
19521;SDS011;9905;52.126;5.596;2023-08-20T06:53:53;9.30;;;4.60;;
19521;SDS011;9905;52.126;5.596;2023-08-20T06:56:22;8.13;;;4.45;;
19521;SDS011;9905;52.126;5.596;2023-08-20T06:58:49;7.40;;;4.75;;
19521;SDS011;9905;52.126;5.596;2023-08-20T07:01:16;11.23;;;4.93;;
19521;SDS011;9905;52.126;5.596;2023-08-20T07:03:43;7.28;;;4.65;;
19521;SDS011;9905;52.126;5.596;2023-08-20T07:06:10;7.80;;;4.60;;
19521;SDS011;9905;52.126;5.596;2023-08-20T07:08:39;5.05;;;4.63;;
19521;SDS011;9905;52.126;5.596;2023-08-20T07:11:07;7.85;;;4.43;;
19521;SDS011;9905;52.126;5.596;2023-08-20T07:13:35;7.95;;;4.18;;
19521;SDS011;9905;52.126;5.596;2023-08-20T07:16:03;5.28;;;4.60;;
19521;SDS011;9905;52.126;5.596;2023-08-20T07:18:30;4.82;;;4.20;;
19521;SDS011;9905;52.126;5.596;2023-08-20T07:20:56;7.43;;;4.15;;
19521;SDS011;9905;52.126;5.596;2023-08-20T07:23:23;4.32;;;3.92;;
19521;SDS011;9905;52.126;5.596;2023-08-20T07:25:50;8.27;;;4.43;;
19521;SDS011;9905;52.126;5.596;2023-08-20T07:28:17;5.32;;;3.90;;
19521;SDS011;9905;52.126;5.596;2023-08-20T07:30:53;6.97;;;3.80;;
19521;SDS011;9905;52.126;5.596;2023-08-20T07:33:18;3.65;;;3.33;;
19521;SDS011;9905;52.126;5.596;2023-08-20T07:35:45;6.68;;;3.90;;
19521;SDS011;9905;52.126;5.596;2023-08-20T07:38:12;4.43;;;3.72;;
19521;SDS011;9905;52.126;5.596;2023-08-20T07:40:39;6.05;;;4.00;;
19521;SDS011;9905;52.126;5.596;2023-08-20T07:43:06;5.10;;;4.13;;
19521;SDS011;9905;52.126;5.596;2023-08-20T07:45:33;6.85;;;4.35;;
19521;SDS011;9905;52.126;5.596;2023-08-20T07:48:01;6.43;;;4.03;;
19521;SDS011;9905;52.126;5.596;2023-08-20T07:50:28;6.65;;;4.00;;
19521;SDS011;9905;52.126;5.596;2023-08-20T07:52:54;5.85;;;4.50;;
19521;SDS011;9905;52.126;5.596;2023-08-20T07:55:21;4.80;;;3.92;;
19521;SDS011;9905;52.126;5.596;2023-08-20T07:57:48;7.85;;;4.00;;
19521;SDS011;9905;52.126;5.596;2023-08-20T08:00:17;3.28;;;2.97;;
19521;SDS011;9905;52.126;5.596;2023-08-20T08:02:44;3.25;;;2.95;;
19521;SDS011;9905;52.126;5.596;2023-08-20T08:05:12;4.88;;;2.92;;
19521;SDS011;9905;52.126;5.596;2023-08-20T08:07:39;5.40;;;2.92;;
19521;SDS011;9905;52.126;5.596;2023-08-20T08:10:07;5.90;;;3.10;;
19521;SDS011;9905;52.126;5.596;2023-08-20T08:12:34;4.00;;;2.97;;
19521;SDS011;9905;52.126;5.596;2023-08-20T08:15:01;2.88;;;2.67;;
19521;SDS011;9905;52.126;5.596;2023-08-20T08:17:28;4.20;;;2.53;;
19521;SDS011;9905;52.126;5.596;2023-08-20T08:19:54;5.35;;;2.38;;
19521;SDS011;9905;52.126;5.596;2023-08-20T08:22:24;2.50;;;2.22;;
19521;SDS011;9905;52.126;5.596;2023-08-20T08:24:51;3.92;;;2.50;;
19521;SDS011;9905;52.126;5.596;2023-08-20T08:27:17;3.58;;;2.60;;
19521;SDS011;9905;52.126;5.596;2023-08-20T08:29:44;4.88;;;2.38;;
19521;SDS011;9905;52.126;5.596;2023-08-20T08:32:11;3.35;;;2.60;;
19521;SDS011;9905;52.126;5.596;2023-08-20T08:34:38;5.82;;;3.35;;
19521;SDS011;9905;52.126;5.596;2023-08-20T08:37:05;3.03;;;2.15;;
19521;SDS011;9905;52.126;5.596;2023-08-20T08:39:33;7.22;;;2.60;;
19521;SDS011;9905;52.126;5.596;2023-08-20T08:42:00;5.88;;;2.60;;
19521;SDS011;9905;52.126;5.596;2023-08-20T08:44:29;2.72;;;2.35;;
19521;SDS011;9905;52.126;5.596;2023-08-20T08:46:57;2.13;;;1.90;;
19521;SDS011;9905;52.126;5.596;2023-08-20T08:49:24;2.85;;;2.65;;
19521;SDS011;9905;52.126;5.596;2023-08-20T08:51:52;3.97;;;2.55;;
19521;SDS011;9905;52.126;5.596;2023-08-20T08:54:21;2.15;;;2.00;;
19521;SDS011;9905;52.126;5.596;2023-08-20T08:56:50;3.70;;;2.10;;
19521;SDS011;9905;52.126;5.596;2023-08-20T08:59:17;2.50;;;1.92;;
19521;SDS011;9905;52.126;5.596;2023-08-20T09:01:44;1.77;;;1.50;;
19521;SDS011;9905;52.126;5.596;2023-08-20T09:04:11;2.22;;;1.50;;
19521;SDS011;9905;52.126;5.596;2023-08-20T09:06:44;2.08;;;1.98;;
19521;SDS011;9905;52.126;5.596;2023-08-20T09:09:12;2.80;;;2.03;;
19521;SDS011;9905;52.126;5.596;2023-08-20T09:11:39;2.72;;;1.98;;
19521;SDS011;9905;52.126;5.596;2023-08-20T09:14:07;2.90;;;2.33;;
19521;SDS011;9905;52.126;5.596;2023-08-20T09:16:34;2.05;;;1.90;;
19521;SDS011;9905;52.126;5.596;2023-08-20T09:19:01;2.70;;;1.85;;
19521;SDS011;9905;52.126;5.596;2023-08-20T09:21:29;2.25;;;2.15;;
19521;SDS011;9905;52.126;5.596;2023-08-20T09:23:56;1.80;;;1.70;;
19521;SDS011;9905;52.126;5.596;2023-08-20T09:26:23;3.80;;;1.77;;
19521;SDS011;9905;52.126;5.596;2023-08-20T09:28:50;2.42;;;1.92;;
19521;SDS011;9905;52.126;5.596;2023-08-20T09:31:22;2.65;;;1.70;;
19521;SDS011;9905;52.126;5.596;2023-08-20T09:34:03;3.72;;;1.70;;
19521;SDS011;9905;52.126;5.596;2023-08-20T09:36:31;3.58;;;1.55;;
19521;SDS011;9905;52.126;5.596;2023-08-20T09:39:00;1.95;;;1.80;;
19521;SDS011;9905;52.126;5.596;2023-08-20T09:41:27;2.50;;;1.65;;
19521;SDS011;9905;52.126;5.596;2023-08-20T09:43:56;2.25;;;1.70;;
19521;SDS011;9905;52.126;5.596;2023-08-20T09:46:26;1.67;;;1.30;;
19521;SDS011;9905;52.126;5.596;2023-08-20T09:48:54;3.53;;;1.35;;
19521;SDS011;9905;52.126;5.596;2023-08-20T09:51:24;1.30;;;1.20;;
19521;SDS011;9905;52.126;5.596;2023-08-20T09:53:55;2.42;;;1.20;;
19521;SDS011;9905;52.126;5.596;2023-08-20T09:56:29;1.30;;;1.13;;
19521;SDS011;9905;52.126;5.596;2023-08-20T09:58:57;1.75;;;1.40;;
19521;SDS011;9905;52.126;5.596;2023-08-20T10:01:26;2.08;;;1.30;;
19521;SDS011;9905;52.126;5.596;2023-08-20T10:03:53;1.45;;;1.30;;
19521;SDS011;9905;52.126;5.596;2023-08-20T10:06:20;2.97;;;1.55;;
19521;SDS011;9905;52.126;5.596;2023-08-20T10:08:49;2.10;;;1.10;;
19521;SDS011;9905;52.126;5.596;2023-08-20T10:11:17;2.38;;;1.55;;
19521;SDS011;9905;52.126;5.596;2023-08-20T10:13:44;3.85;;;1.40;;
19521;SDS011;9905;52.126;5.596;2023-08-20T10:16:11;1.73;;;1.50;;
19521;SDS011;9905;52.126;5.596;2023-08-20T10:18:40;1.27;;;1.15;;
19521;SDS011;9905;52.126;5.596;2023-08-20T10:21:06;1.60;;;1.20;;
19521;SDS011;9905;52.126;5.596;2023-08-20T10:23:34;1.25;;;1.15;;
19521;SDS011;9905;52.126;5.596;2023-08-20T10:26:06;1.50;;;1.40;;
19521;SDS011;9905;52.126;5.596;2023-08-20T10:28:34;2.40;;;1.35;;
19521;SDS011;9905;52.126;5.596;2023-08-20T10:31:07;2.10;;;1.33;;
19521;SDS011;9905;52.126;5.596;2023-08-20T10:33:36;2.00;;;1.17;;
19521;SDS011;9905;52.126;5.596;2023-08-20T10:36:08;1.67;;;1.23;;
19521;SDS011;9905;52.126;5.596;2023-08-20T10:38:36;2.45;;;1.05;;
19521;SDS011;9905;52.126;5.596;2023-08-20T10:41:05;2.05;;;1.20;;
19521;SDS011;9905;52.126;5.596;2023-08-20T10:43:33;2.90;;;1.30;;
19521;SDS011;9905;52.126;5.596;2023-08-20T10:46:04;1.55;;;1.25;;
19521;SDS011;9905;52.126;5.596;2023-08-20T10:48:32;1.58;;;1.10;;
19521;SDS011;9905;52.126;5.596;2023-08-20T10:51:05;2.63;;;1.48;;
19521;SDS011;9905;52.126;5.596;2023-08-20T10:53:38;1.70;;;1.40;;
19521;SDS011;9905;52.126;5.596;2023-08-20T10:56:07;1.98;;;1.40;;
19521;SDS011;9905;52.126;5.596;2023-08-20T10:58:40;1.55;;;1.00;;
19521;SDS011;9905;52.126;5.596;2023-08-20T11:01:14;1.63;;;1.50;;
19521;SDS011;9905;52.126;5.596;2023-08-20T11:03:42;1.65;;;1.40;;
19521;SDS011;9905;52.126;5.596;2023-08-20T11:06:14;1.60;;;1.23;;
19521;SDS011;9905;52.126;5.596;2023-08-20T11:08:44;1.83;;;1.38;;
19521;SDS011;9905;52.126;5.596;2023-08-20T11:11:11;3.08;;;1.20;;
19521;SDS011;9905;52.126;5.596;2023-08-20T11:13:38;2.58;;;1.58;;
19521;SDS011;9905;52.126;5.596;2023-08-20T11:16:05;1.25;;;1.13;;
19521;SDS011;9905;52.126;5.596;2023-08-20T11:18:33;3.22;;;1.15;;
19521;SDS011;9905;52.126;5.596;2023-08-20T11:21:00;1.25;;;1.00;;
19521;SDS011;9905;52.126;5.596;2023-08-20T11:23:29;1.50;;;1.38;;
19521;SDS011;9905;52.126;5.596;2023-08-20T11:25:57;1.67;;;1.25;;
19521;SDS011;9905;52.126;5.596;2023-08-20T11:28:27;2.22;;;1.27;;
19521;SDS011;9905;52.126;5.596;2023-08-20T11:30:54;5.85;;;4.63;;
19521;SDS011;9905;52.126;5.596;2023-08-20T11:33:22;4.05;;;3.22;;
19521;SDS011;9905;52.126;5.596;2023-08-20T11:35:51;2.78;;;1.45;;
19521;SDS011;9905;52.126;5.596;2023-08-20T11:38:19;1.75;;;1.52;;
19521;SDS011;9905;52.126;5.596;2023-08-20T11:40:49;2.83;;;1.38;;
19521;SDS011;9905;52.126;5.596;2023-08-20T11:43:16;3.15;;;1.42;;
19521;SDS011;9905;52.126;5.596;2023-08-20T11:45:44;2.33;;;1.40;;
19521;SDS011;9905;52.126;5.596;2023-08-20T11:48:12;2.08;;;1.20;;
19521;SDS011;9905;52.126;5.596;2023-08-20T11:50:40;2.63;;;1.23;;
19521;SDS011;9905;52.126;5.596;2023-08-20T11:53:08;1.23;;;1.10;;
19521;SDS011;9905;52.126;5.596;2023-08-20T11:55:35;2.38;;;1.15;;
19521;SDS011;9905;52.126;5.596;2023-08-20T11:58:05;1.58;;;1.20;;
19521;SDS011;9905;52.126;5.596;2023-08-20T12:00:32;1.35;;;1.20;;
19521;SDS011;9905;52.126;5.596;2023-08-20T12:02:58;2.67;;;1.20;;
19521;SDS011;9905;52.126;5.596;2023-08-20T12:05:26;1.02;;;1.00;;
19521;SDS011;9905;52.126;5.596;2023-08-20T12:07:57;3.78;;;1.30;;
19521;SDS011;9905;52.126;5.596;2023-08-20T12:10:24;1.70;;;1.27;;
19521;SDS011;9905;52.126;5.596;2023-08-20T12:12:52;0.80;;;0.80;;
19521;SDS011;9905;52.126;5.596;2023-08-20T12:15:21;1.63;;;1.10;;
19521;SDS011;9905;52.126;5.596;2023-08-20T12:17:55;1.35;;;1.10;;
19521;SDS011;9905;52.126;5.596;2023-08-20T12:20:27;1.35;;;1.05;;
19521;SDS011;9905;52.126;5.596;2023-08-20T12:22:57;2.85;;;1.10;;
19521;SDS011;9905;52.126;5.596;2023-08-20T12:25:26;1.65;;;1.30;;
19521;SDS011;9905;52.126;5.596;2023-08-20T12:27:53;1.40;;;1.15;;
19521;SDS011;9905;52.126;5.596;2023-08-20T12:30:19;1.42;;;1.10;;
19521;SDS011;9905;52.126;5.596;2023-08-20T12:32:48;1.65;;;1.02;;
19521;SDS011;9905;52.126;5.596;2023-08-20T12:35:14;1.75;;;1.10;;
19521;SDS011;9905;52.126;5.596;2023-08-20T12:37:41;1.02;;;1.00;;
19521;SDS011;9905;52.126;5.596;2023-08-20T12:40:08;1.17;;;1.08;;
19521;SDS011;9905;52.126;5.596;2023-08-20T12:42:37;1.38;;;1.05;;
19521;SDS011;9905;52.126;5.596;2023-08-20T12:45:05;2.40;;;1.20;;
19521;SDS011;9905;52.126;5.596;2023-08-20T12:47:33;1.70;;;1.10;;
19521;SDS011;9905;52.126;5.596;2023-08-20T12:50:00;1.48;;;0.98;;
19521;SDS011;9905;52.126;5.596;2023-08-20T12:52:28;1.80;;;1.17;;
19521;SDS011;9905;52.126;5.596;2023-08-20T12:54:55;1.60;;;1.20;;
19521;SDS011;9905;52.126;5.596;2023-08-20T12:57:22;1.25;;;1.13;;
19521;SDS011;9905;52.126;5.596;2023-08-20T12:59:49;1.05;;;0.90;;
19521;SDS011;9905;52.126;5.596;2023-08-20T13:02:15;1.15;;;1.00;;
19521;SDS011;9905;52.126;5.596;2023-08-20T13:04:45;1.38;;;1.27;;
19521;SDS011;9905;52.126;5.596;2023-08-20T13:07:13;1.20;;;1.10;;
19521;SDS011;9905;52.126;5.596;2023-08-20T13:09:41;1.63;;;1.05;;
19521;SDS011;9905;52.126;5.596;2023-08-20T13:12:09;2.03;;;1.35;;
19521;SDS011;9905;52.126;5.596;2023-08-20T13:14:37;1.38;;;1.23;;
19521;SDS011;9905;52.126;5.596;2023-08-20T13:17:05;1.45;;;1.10;;
19521;SDS011;9905;52.126;5.596;2023-08-20T13:19:33;2.05;;;1.00;;
19521;SDS011;9905;52.126;5.596;2023-08-20T13:22:01;1.10;;;1.08;;
19521;SDS011;9905;52.126;5.596;2023-08-20T13:24:28;2.05;;;1.10;;
19521;SDS011;9905;52.126;5.596;2023-08-20T13:26:55;1.35;;;1.00;;
19521;SDS011;9905;52.126;5.596;2023-08-20T13:29:22;2.50;;;1.10;;
19521;SDS011;9905;52.126;5.596;2023-08-20T13:31:49;3.35;;;1.30;;
19521;SDS011;9905;52.126;5.596;2023-08-20T13:34:19;1.70;;;1.15;;
19521;SDS011;9905;52.126;5.596;2023-08-20T13:36:46;1.13;;;0.95;;
19521;SDS011;9905;52.126;5.596;2023-08-20T13:39:15;1.20;;;1.10;;
19521;SDS011;9905;52.126;5.596;2023-08-20T13:41:43;1.20;;;1.10;;
19521;SDS011;9905;52.126;5.596;2023-08-20T13:44:10;1.35;;;1.05;;
19521;SDS011;9905;52.126;5.596;2023-08-20T13:46:37;1.85;;;1.00;;
19521;SDS011;9905;52.126;5.596;2023-08-20T13:49:04;1.52;;;1.00;;
19521;SDS011;9905;52.126;5.596;2023-08-20T13:51:30;2.17;;;1.00;;
19521;SDS011;9905;52.126;5.596;2023-08-20T13:53:57;1.55;;;1.20;;
19521;SDS011;9905;52.126;5.596;2023-08-20T13:56:26;2.35;;;1.08;;
19521;SDS011;9905;52.126;5.596;2023-08-20T13:58:53;3.55;;;1.33;;
19521;SDS011;9905;52.126;5.596;2023-08-20T14:01:20;1.30;;;1.20;;
19521;SDS011;9905;52.126;5.596;2023-08-20T14:03:47;1.40;;;1.30;;
19521;SDS011;9905;52.126;5.596;2023-08-20T14:06:15;0.93;;;0.90;;
19521;SDS011;9905;52.126;5.596;2023-08-20T14:08:42;1.13;;;1.00;;
19521;SDS011;9905;52.126;5.596;2023-08-20T14:11:09;1.23;;;1.05;;
19521;SDS011;9905;52.126;5.596;2023-08-20T14:13:38;0.93;;;0.90;;
19521;SDS011;9905;52.126;5.596;2023-08-20T14:16:05;3.92;;;1.25;;
19521;SDS011;9905;52.126;5.596;2023-08-20T14:18:32;2.55;;;1.25;;
19521;SDS011;9905;52.126;5.596;2023-08-20T14:20:58;2.40;;;1.25;;
19521;SDS011;9905;52.126;5.596;2023-08-20T14:23:25;1.67;;;1.30;;
19521;SDS011;9905;52.126;5.596;2023-08-20T14:25:53;5.93;;;1.60;;
19521;SDS011;9905;52.126;5.596;2023-08-20T14:28:20;1.40;;;1.23;;
19521;SDS011;9905;52.126;5.596;2023-08-20T14:30:49;1.77;;;1.15;;
19521;SDS011;9905;52.126;5.596;2023-08-20T14:33:19;1.20;;;1.10;;
19521;SDS011;9905;52.126;5.596;2023-08-20T14:35:46;1.67;;;1.35;;
19521;SDS011;9905;52.126;5.596;2023-08-20T14:38:13;2.55;;;1.20;;
19521;SDS011;9905;52.126;5.596;2023-08-20T14:40:40;1.67;;;1.30;;
19521;SDS011;9905;52.126;5.596;2023-08-20T14:43:06;2.80;;;1.73;;
19521;SDS011;9905;52.126;5.596;2023-08-20T14:45:34;2.28;;;1.35;;
19521;SDS011;9905;52.126;5.596;2023-08-20T14:48:02;1.48;;;1.30;;
19521;SDS011;9905;52.126;5.596;2023-08-20T14:50:29;2.17;;;1.15;;
19521;SDS011;9905;52.126;5.596;2023-08-20T14:52:56;2.38;;;1.30;;
19521;SDS011;9905;52.126;5.596;2023-08-20T14:55:23;1.20;;;1.10;;
19521;SDS011;9905;52.126;5.596;2023-08-20T14:57:50;2.38;;;1.42;;
19521;SDS011;9905;52.126;5.596;2023-08-20T15:00:17;1.23;;;1.05;;
19521;SDS011;9905;52.126;5.596;2023-08-20T15:02:44;1.73;;;1.40;;